Tiempo atmosférico en la estación meteorológica de Bailo, Huesca (722 m.)



Fecha
DESCASC
Temp. máxima en grados centígrados (hora)
DESCASC
Temp. mínima en grados centígrados (hora)
DESCASC
Temp. media en grados centígrados
DESCASC
Racha de viento máxima en m/sg (hora)
DESCASC
Velocidad máxima media en intervalos de 10 minutos(hora)
DESCASC
Precipitaciones diarias en mm
DESCASC
Precipitaciones de 00:00 a 06:00 en mm
DESCASC
Precipitaciones de 06:00 a 12:00 en mm
DESCASC
Precipitaciones de 12:00 a 18:00 en mm
DESCASC
Precipitaciones de 18:00 a 24:00 en mm
DESCASC
18-08-2019 33.8 (16:20) 19.3 (23:59) 26.5 12.22 (17:10) 7.78 (18:30) 0 0 0 0 0
17-08-2019 34.9 (18:00) 17.5 (05:20) 26.2 12.22 (23:40) 8.33 (23:40) 0 0 0 0 0
16-08-2019 32.4 (18:10) 9.7 (07:40) 21.1 9.44 (16:20) 4.17 (15:20) 0 0 0 0 0
15-08-2019 27.7 (16:50) 15.6 (00:00) 21.7 10.28 (17:40) 6.67 (17:40) 0 0 0 0 0
14-08-2019 28.9 (17:00) 9.1 (00:00) 19 11.39 (18:50) 7.5 (18:50) 0 0 0 0 0
13-08-2019 25 (16:30) 10.1 (00:00) 17.6 9.72 (18:40) 6.67 (18:20) 0 0 0 0 0
12-08-2019 21.9 (16:20) 13.2 (00:00) 17.5 14.72 (19:20) 10.83 (18:10) 0 0 0 0 0
11-08-2019 26.4 (18:00) 16.4 (00:00) 21.4 9.72 (19:40) 6.67 (19:10) 4.2 0 4.2 0 0
10-08-2019 28.4 (18:20) 15.7 (00:00) 22 7.5 (14:10) 4.44 (16:00) 0.2 0 0.2 0 0
09-08-2019 34 (17:50) 19.4 (00:00) 26.7 26.67 (20:30) 8.06 (20:20) 4 0 0 0 4
08-08-2019 32.5 (17:20) 18.8 (00:00) 25.6 10.28 (15:40) 6.11 (15:40) 0 0 0 0 0
07-08-2019 30.9 (16:00) 18.8 (00:00) 24.8 10.28 (16:30) 6.94 (16:30) 0.2 0 0 0 0.2
06-08-2019 33.2 (18:00) 16.3 (00:00) 24.8 7.5 (18:00) 4.17 (12:50) 0 0 0 0 0
05-08-2019 33.9 (18:40) 16.5 (00:00) 25.2 7.78 (15:40) 5 (15:40) 0 0 0 0 0
04-08-2019 34.4 (16:00) 17.5 (00:00) 26 11.94 (17:20) 5.83 (17:40) 0 0 0 0 0
03-08-2019 34 (18:30) 13.8 (00:00) 23.9 8.61 (16:30) 5.28 (18:50) 0 0 0 0 0
02-08-2019 31.3 (17:40) 15 (00:00) 23.1 9.72 (16:40) 6.11 (16:50) 0 0 0 0 0
01-08-2019 30.2 (16:50) 15.7 (00:00) 23 9.17 (20:00) 4.72 (18:00) 0 0 0 0 0
31-07-2019 28.4 (17:00) 9 (00:00) 18.7 7.22 (23:10) 4.17 (15:30) 0 0 0 0 0
30-07-2019 24 (15:50) 13 (00:00) 18.5 11.11 (16:50) 7.5 (19:10) 0 0 0 0 0
29-07-2019 31 (18:20) 10.7 (00:00) 20.8 9.44 (16:10) 6.39 (16:20) 0 0 0 0 0
28-07-2019 24.5 (18:20) 13.4 (00:00) 18.9 13.33 (04:20) 10 (04:20) 0 0 0 0 0
27-07-2019 21 (16:50) 13.9 (00:00) 17.4 16.11 (23:40) 10.28 (23:40) 3.4 3.2 0 0.2 0
26-07-2019 27.4 (14:40) 16.5 (00:00) 21.9 8.61 (17:30) 5.83 (18:30) 5.4 0 0 0.2 5.2
25-07-2019 35.2 (17:00) 24 (00:00) 29.6 12.5 (15:00) 8.61 (15:10) 0 0 0 0 0
24-07-2019 36.2 (17:30) 20.7 (00:00) 28.5 8.61 (16:40) 5.56 (18:10) 0 0 0 0 0
23-07-2019 36.7 (17:50) 23.3 (00:00) 30 10 (17:10) 6.67 (02:40) 0 0 0 0 0
22-07-2019 36.1 (18:00) 21.8 (00:00) 28.9 9.72 (16:50) 5.28 (12:50) 0 0 0 0 0
21-07-2019 33.3 (17:50) 17.4 (00:00) 25.3 8.33 (19:30) 5.56 (18:30) 0.6 0 0 0.6 0

Gráficas

Temp. máximas Temp. mínimas Temp. medias Precipitaciones Rachas de viento máximas Velocidades máximas media en intervalos de 10 minutos

Datos horarios

Fecha y hora oficial Temperatura (ºC) Velocidad del viento (km/h) Dirección del viento Racha (km/h) Dirección de racha Precipitación (mm) Presión (hPa) Tendencia (hPa) Humedad (%)
2019-08-19 23:00:00 17.3 4 Sudoeste 8 Sudoeste 0.6 -- -- 85
2019-08-19 22:00:00 18.2 2 Sudoeste 13 Sudeste 0.4 -- -- 79
2019-08-19 21:00:00 19.9 0 Calma 13 Nordeste 0 -- -- 64
2019-08-19 20:00:00 20.9 6 Oeste 18 Noroeste 0 -- -- 59
2019-08-19 19:00:00 21.9 2 Norte 23 Noroeste 0 -- -- 55
2019-08-19 18:00:00 22.7 12 Oeste 21 Norte 0 -- -- 55
2019-08-19 17:00:00 23.1 9 Noroeste 20 Norte 0 -- -- 54
2019-08-19 16:00:00 23.6 8 Norte 17 Noroeste 0 -- -- 52
2019-08-19 15:00:00 23.9 8 Norte 16 Nordeste 0 -- -- 51
2019-08-19 14:00:00 22.9 8 Noroeste 15 Nordeste 0 -- -- 52
2019-08-19 13:00:00 21.9 5 Norte 15 Noroeste 0 -- -- 54
2019-08-19 12:00:00 20.9 5 Noroeste 13 Noroeste 0 -- -- 57
2019-08-19 11:00:00 19.1 8 Noroeste 14 Noroeste 0 -- -- 59
2019-08-19 10:00:00 18 4 Oeste 11 Oeste 0 -- -- 63
2019-08-19 09:00:00 16.6 0 Calma 5 Sur 0 -- -- 67
2019-08-19 08:00:00 15.8 3 Sur 5 Sur 0 -- -- 73
2019-08-19 07:00:00 15.6 2 Sudeste 7 Norte 0 -- -- 72
2019-08-19 06:00:00 16.1 0 Calma 8 Oeste 0 -- -- 71
2019-08-19 05:00:00 16.2 3 Nordeste 7 Norte 0 -- -- 72
2019-08-19 04:00:00 16.7 0 Calma 6 Nordeste 0 -- -- 72
2019-08-19 03:00:00 17.2 5 Norte 11 Noroeste 0 -- -- 71
2019-08-19 02:00:00 18.3 5 Norte 13 Noroeste 0 -- -- 70
2019-08-19 01:00:00 19.3 4 Norte 10 Noroeste 0 -- -- 69
2019-08-19 00:00:00 19.3 4 Norte 12 Norte 0 -- -- 70
2019-08-18 23:00:00 20.1 6 Norte 19 Norte 0 -- -- 68
2019-08-18 22:00:00 21.2 10 Norte 22 Noroeste 0 -- -- 66
2019-08-18 21:00:00 23.1 11 Norte 26 Norte 0 -- -- 62
2019-08-18 20:00:00 26.3 12 Norte 38 Noroeste 0 -- -- 54
2019-08-18 19:00:00 29.7 24 Oeste 35 Noroeste 0 -- -- 41
2019-08-18 18:00:00 32.9 25 Noroeste 44 Noroeste 0 -- -- 30
2019-08-18 17:00:00 33.6 24 Noroeste 37 Oeste 0 -- -- 21
2019-08-18 16:00:00 33.2 22 Oeste 38 Oeste 0 -- -- 22
2019-08-18 15:00:00 32.9 15 Sudoeste 30 Sur 0 -- -- 31
2019-08-18 14:00:00 31.9 12 Sur 32 Sur 0 -- -- 33
2019-08-18 13:00:00 30.2 13 Sur 28 Sudoeste 0 -- -- 39
2019-08-18 12:00:00 28.3 19 Sur 32 Sur 0 -- -- 46
2019-08-18 11:00:00 26.6 19 Sur 31 Sur 0 -- -- 51
2019-08-18 10:00:00 25.6 14 Sudeste 23 Sudeste 0 -- -- 52
2019-08-18 09:00:00 22.9 15 Sur 25 Sur 0 -- -- 65
2019-08-18 08:00:00 21 13 Sur 24 Sur 0 -- -- 74
2019-08-18 07:00:00 20.4 13 Sur 24 Sudeste 0 -- -- 78
2019-08-18 06:00:00 20.6 10 Sudeste 27 Sur 0 -- -- 78
2019-08-18 05:00:00 21.5 13 Sur 35 Sur 0 -- -- 75
2019-08-18 04:00:00 22.6 24 Sur 35 Sur 0 -- -- 70
2019-08-18 03:00:00 23.5 20 Sur 30 Sur 0 -- -- 61
2019-08-18 02:00:00 24.5 17 Sur 27 Sur 0 -- -- 57
2019-08-18 01:00:00 25.3 14 Sur 27 Sur 0 -- -- 59
2019-08-18 00:00:00 26.6 23 Sur 44 Sudoeste 0 -- -- 56
2019-08-17 23:00:00 27.2 26 Sudoeste 39 Sudoeste 0 -- -- 54
2019-08-17 22:00:00 28.8 24 Sudoeste 36 Sudoeste 0 -- -- 43
2019-08-17 21:00:00 29.9 17 Sudoeste 23 Sudoeste 0 -- -- 31
2019-08-17 20:00:00 32.8 11 Sur 24 Sur 0 -- -- 27
2019-08-17 19:00:00 34.6 9 Oeste 31 Oeste 0 -- -- 22
2019-08-17 18:00:00 34.9 17 Noroeste 27 Noroeste 0 -- -- 20
2019-08-17 17:00:00 34 15 Sur 30 Sur 0 -- -- 22
2019-08-17 16:00:00 33.6 13 Sur 27 Sur 0 -- -- 29
2019-08-17 15:00:00 33.1 13 Sur 30 Sur 0 -- -- 29
2019-08-17 14:00:00 32 13 Sur 28 Sudeste 0 -- -- 33
2019-08-17 13:00:00 30.6 12 Sur 25 Sur 0 -- -- 33
2019-08-17 12:00:00 29 15 Sur 26 Sur 0 -- -- 38
2019-08-17 11:00:00 26.9 14 Sudoeste 22 Sudoeste 0 -- -- 44
2019-08-17 10:00:00 25.5 10 Sur 21 Sur 0 -- -- 45
2019-08-17 09:00:00 20.7 3 Este 6 Sudeste 0 -- -- 53
2019-08-17 08:00:00 17.7 2 Noroeste 8 Noroeste 0 -- -- 61
2019-08-17 07:00:00 18.9 5 Norte 20 Sudeste 0 -- -- 56
2019-08-17 06:00:00 20.1 12 Sur 22 Sur 0 -- -- 50
2019-08-17 05:00:00 18.8 3 Este 9 Sudeste 0 -- -- 58
2019-08-17 04:00:00 19.1 3 Norte 6 Noroeste 0 -- -- 56
2019-08-17 03:00:00 20 0 Calma 7 Noroeste 0 -- -- 53
2019-08-17 02:00:00 21.5 5 Noroeste 9 Sur 0 -- -- 50
2019-08-17 01:00:00 23.2 3 Norte 8 Nordeste 0 -- -- 44
2019-08-17 00:00:00 24.6 4 Sudoeste 12 Oeste 0 -- -- 41
2019-08-16 23:00:00 24.4 10 Sudoeste 14 Sudoeste 0 -- -- 43
2019-08-16 22:00:00 24.8 6 Sudeste 12 Oeste 0 -- -- 42
2019-08-16 21:00:00 27.4 7 Oeste 17 Norte 0 -- -- 38
2019-08-16 20:00:00 30.8 11 Norte 20 Norte 0 -- -- 30
2019-08-16 19:00:00 31.7 10 Noroeste 23 Noroeste 0 -- -- 29
2019-08-16 18:00:00 32.2 11 Noroeste 21 Noroeste 0 -- -- 28
2019-08-16 17:00:00 32 11 Norte 34 Este 0 -- -- 27
2019-08-16 16:00:00 30.9 12 Nordeste 27 Noroeste 0 -- -- 29
2019-08-16 15:00:00 30.7 9 Noroeste 21 Oeste 0 -- -- 27
2019-08-16 14:00:00 29.7 9 Norte 19 Este 0 -- -- 26
2019-08-16 13:00:00 28.3 10 Sudeste 22 Sudeste 0 -- -- 27
2019-08-16 12:00:00 25.1 6 Este 12 Nordeste 0 -- -- 34
2019-08-16 11:00:00 21 5 Sudeste 11 Este 0 -- -- 50
2019-08-16 10:00:00 16.2 4 Noroeste 7 Nordeste 0 -- -- 63
2019-08-16 09:00:00 14.1 4 Nordeste 6 Este 0 -- -- 71
2019-08-16 08:00:00 10.8 0 Calma 4 Nordeste 0 -- -- 81
2019-08-16 07:00:00 10.2 0 Calma 5 Oeste 0 -- -- 82
2019-08-16 06:00:00 10.3 0 Calma 4 Este 0 -- -- 80
2019-08-16 05:00:00 10.8 2 Oeste 8 Sudoeste 0 -- -- 79
2019-08-16 04:00:00 11.7 3 Oeste 5 Oeste 0 -- -- 76
2019-08-16 03:00:00 12.3 3 Noroeste 9 Sudoeste 0 -- -- 73
2019-08-16 02:00:00 14.1 9 Sudoeste 10 Sudoeste 0 -- -- 67
2019-08-16 01:00:00 14.9 3 Sudeste 9 Sudeste 0 -- -- 63
2019-08-16 00:00:00 15.6 6 Sur 8 Sur 0 -- -- 59
2019-08-15 23:00:00 16.9 0 Calma 7 Norte 0 -- -- 51
2019-08-15 22:00:00 18.5 3 Este 27 Noroeste 0 -- -- 49
2019-08-15 21:00:00 20.5 18 Noroeste 26 Norte 0 -- -- 46
2019-08-15 20:00:00 23.7 18 Norte 31 Noroeste 0 -- -- 40
2019-08-15 19:00:00 25.5 24 Norte 34 Norte 0 -- -- 35
2019-08-15 18:00:00 26.9 24 Noroeste 37 Noroeste 0 -- -- 31
2019-08-15 17:00:00 27.7 20 Norte 34 Norte 0 -- -- 26
2019-08-15 16:00:00 27.4 20 Noroeste 32 Noroeste 0 -- -- 31
2019-08-15 15:00:00 26.6 20 Norte 36 Noroeste 0 -- -- 30
2019-08-15 14:00:00 25.9 14 Noroeste 30 Noroeste 0 -- -- 36
2019-08-15 13:00:00 25.1 18 Noroeste 35 Noroeste 0 -- -- 42
2019-08-15 12:00:00 23.8 17 Noroeste 31 Noroeste 0 -- -- 49
2019-08-15 11:00:00 22.8 9 Norte 19 Norte 0 -- -- 54
2019-08-15 10:00:00 20.8 5 Norte 12 Nordeste 0 -- -- 62
2019-08-15 09:00:00 19.1 2 Noroeste 6 Sudeste 0 -- -- 70
2019-08-15 08:00:00 16.7 2 Norte 7 Noroeste 0 -- -- 81
2019-08-15 07:00:00 16.5 0 Calma 7 Oeste 0 -- -- 80
2019-08-15 06:00:00 16.2 4 Oeste 6 Oeste 0 -- -- 82
2019-08-15 05:00:00 16.6 2 Noroeste 9 Noroeste 0 -- -- 81
2019-08-15 04:00:00 17.2 7 Sudoeste 9 Sudoeste 0 -- -- 78
2019-08-15 03:00:00 17.1 4 Sudoeste 12 Norte 0 -- -- 78
2019-08-15 02:00:00 18.6 0 Calma 9 Norte 0 -- -- 72
2019-08-15 01:00:00 18.7 10 Noroeste 19 Noroeste 0 -- -- 71
2019-08-15 00:00:00 19.7 12 Noroeste 18 Noroeste 0 -- -- 65
2019-08-14 23:00:00 20.3 5 Oeste 22 Oeste 0 -- -- 60
2019-08-14 22:00:00 20.9 16 Noroeste 35 Noroeste 0 -- -- 56
2019-08-14 21:00:00 22.4 22 Noroeste 33 Norte 0 -- -- 51
2019-08-14 20:00:00 24.8 24 Noroeste 39 Noroeste 0 -- -- 45
2019-08-14 19:00:00 26.8 27 Norte 41 Norte 0 -- -- 40
2019-08-14 18:00:00 28.4 21 Norte 37 Norte 0 -- -- 33
2019-08-14 17:00:00 28.9 20 Noroeste 39 Noroeste 0 -- -- 31
2019-08-14 16:00:00 28.2 18 Norte 41 Noroeste 0 -- -- 31
2019-08-14 15:00:00 27.1 15 Norte 31 Norte 0 -- -- 31
2019-08-14 14:00:00 26.3 16 Noroeste 34 Noroeste 0 -- -- 29
2019-08-14 13:00:00 24.8 14 Norte 26 Noroeste 0 -- -- 31
2019-08-14 12:00:00 22.8 8 Este 15 Nordeste 0 -- -- 35
2019-08-14 11:00:00 18.8 4 Nordeste 11 Nordeste 0 -- -- 47
2019-08-14 10:00:00 14.8 2 Oeste 8 Nordeste 0 -- -- 63
2019-08-14 09:00:00 12.2 2 Oeste 6 Este 0 -- -- 75
2019-08-14 08:00:00 11.1 3 Este 4 Nordeste 0 -- -- 81
2019-08-14 07:00:00 9.3 3 Norte 4 Sudoeste 0 -- -- 83
2019-08-14 06:00:00 9.7 2 Oeste 4 Norte 0 -- -- 81
2019-08-14 05:00:00 10.2 4 Norte 5 Norte 0 -- -- 80
2019-08-14 04:00:00 10.6 2 Oeste 4 Oeste 0 -- -- 78
2019-08-14 03:00:00 11.3 3 Oeste 7 Sudoeste 0 -- -- 74
2019-08-14 02:00:00 12.8 6 Sudoeste 8 Sudoeste 0 -- -- 68
2019-08-14 01:00:00 12.7 3 Oeste 7 Oeste 0 -- -- 68
2019-08-14 00:00:00 13.5 5 Sudoeste 12 Este 0 -- -- 66
2019-08-13 23:00:00 14.8 4 Oeste 10 Oeste 0 -- -- 61
2019-08-13 22:00:00 15.9 4 Sudoeste 16 Norte 0 -- -- 58
2019-08-13 21:00:00 18.8 12 Norte 24 Norte 0 -- -- 47
2019-08-13 20:00:00 21.2 17 Norte 33 Noroeste 0 -- -- 41
2019-08-13 19:00:00 22.5 22 Noroeste 35 Norte 0 -- -- 37
2019-08-13 18:00:00 24.4 22 Noroeste 34 Norte 0 -- -- 36
2019-08-13 17:00:00 24.6 17 Norte 29 Norte 0 -- -- 34
2019-08-13 16:00:00 24.6 14 Noroeste 26 Noroeste 0 -- -- 33
2019-08-13 15:00:00 23.4 10 Norte 22 Norte 0 -- -- 37
2019-08-13 14:00:00 22 9 Norte 23 Norte 0 -- -- 41
2019-08-13 13:00:00 20.2 9 Norte 20 Nordeste 0 -- -- 45
2019-08-13 12:00:00 18.2 8 Norte 16 Noroeste 0 -- -- 49
2019-08-13 11:00:00 15.8 4 Noroeste 8 Noroeste 0 -- -- 58
2019-08-13 10:00:00 13.9 3 Este 7 Nordeste 0 -- -- 65
2019-08-13 09:00:00 12.4 0 Calma 5 Sudoeste 0 -- -- 72
2019-08-13 08:00:00 10.6 2 Sudeste 5 Sudeste 0 -- -- 79
2019-08-13 07:00:00 10.7 0 Calma 6 Oeste 0 -- -- 77
2019-08-13 06:00:00 11.3 4 Oeste 6 Sudoeste 0 -- -- 74
2019-08-13 05:00:00 11.6 4 Sudoeste 6 Sudoeste 0 -- -- 74
2019-08-13 04:00:00 12.5 4 Sur 7 Sudeste 0 -- -- 71
2019-08-13 03:00:00 12.3 5 Sudeste 15 Noroeste 0 -- -- 73
2019-08-13 02:00:00 12.2 9 Noroeste 18 Noroeste 0 -- -- 71
2019-08-13 01:00:00 12.8 12 Noroeste 27 Noroeste 0 -- -- 68
2019-08-13 00:00:00 13.8 22 Noroeste 42 Noroeste 0 -- -- 65
2019-08-12 23:00:00 13.9 28 Noroeste 41 Noroeste 0 -- -- 66
2019-08-12 22:00:00 14.6 28 Noroeste 44 Noroeste 0 -- -- 62
2019-08-12 21:00:00 15.4 30 Noroeste 52 Noroeste 0 -- -- 60
2019-08-12 20:00:00 18.1 30 Noroeste 53 Norte 0 -- -- 50
2019-08-12 19:00:00 19.5 32 Noroeste 52 Noroeste 0 -- -- 48
2019-08-12 18:00:00 20.5 37 Norte 52 Noroeste 0 -- -- 46
2019-08-12 17:00:00 21.2 35 Norte 51 Norte 0 -- -- 44
2019-08-12 16:00:00 21.8 31 Norte 47 Norte 0 -- -- 44
2019-08-12 15:00:00 21.3 29 Norte 44 Noroeste 0 -- -- 46
2019-08-12 14:00:00 20.9 29 Norte 45 Norte 0 -- -- 48
2019-08-12 13:00:00 20.1 29 Norte 45 Noroeste 0 -- -- 51
2019-08-12 12:00:00 19.1 33 Noroeste 46 Noroeste 0 -- -- 55
2019-08-12 11:00:00 18.6 31 Noroeste 42 Noroeste 0 -- -- 59
2019-08-12 10:00:00 17.7 20 Noroeste 35 Noroeste 0 -- -- 62
2019-08-12 09:00:00 15.8 15 Noroeste 24 Noroeste 0 -- -- 71
2019-08-12 08:00:00 14.3 4 Norte 10 Noroeste 0 -- -- 77
2019-08-12 07:00:00 13.3 5 Noroeste 8 Oeste 0 -- -- 82
2019-08-12 06:00:00 13.7 2 Sur 6 Este 0 -- -- 80
2019-08-12 05:00:00 14 3 Noroeste 12 Noroeste 0 -- -- 79
2019-08-12 04:00:00 14 10 Noroeste 15 Noroeste 0 -- -- 79
2019-08-12 03:00:00 14.1 7 Noroeste 9 Noroeste 0 -- -- 78
2019-08-12 02:00:00 15.5 2 Este 6 Norte 0 -- -- 74
2019-08-12 01:00:00 16.2 3 Este 10 Norte 0 -- -- 72
2019-08-12 00:00:00 16.9 4 Noroeste 9 Noroeste 0 -- -- 70
2019-08-11 23:00:00 17.3 8 Noroeste 16 Norte 0 -- -- 69
2019-08-11 22:00:00 18.2 9 Noroeste 21 Noroeste 0 -- -- 65
2019-08-11 21:00:00 19.4 12 Norte 27 Noroeste 0 -- -- 61
2019-08-11 20:00:00 22.5 21 Noroeste 35 Noroeste 0 -- -- 51
2019-08-11 19:00:00 24.6 24 Norte 32 Norte 0 -- -- 44
2019-08-11 18:00:00 26.4 13 Norte 24 Norte 0 -- -- 38
2019-08-11 17:00:00 25.6 11 Nordeste 24 Nordeste 0 -- -- 43
2019-08-11 16:00:00 25 10 Nordeste 29 Noroeste 0 -- -- 47
2019-08-11 15:00:00 24.4 11 Norte 24 Norte 0 -- -- 51
2019-08-11 14:00:00 22.4 7 Norte 21 Nordeste 0 -- -- 59
2019-08-11 13:00:00 20.8 6 Nordeste 16 Norte 0 -- -- 72
2019-08-11 12:00:00 18.9 10 Oeste 14 Noroeste 0 -- -- 77
2019-08-11 11:00:00 17.4 6 Noroeste 19 Este 0 -- -- 88
2019-08-11 10:00:00 16.6 12 Este 23 Noroeste 0.2 -- -- 94
2019-08-11 09:00:00 16.5 12 Noroeste 19 Noroeste 1.4 -- -- 93
2019-08-11 08:00:00 16.7 6 Nordeste 21 Noroeste 2.6 -- -- 92
2019-08-11 07:00:00 17.3 4 Sudeste 13 Noroeste 0 -- -- 86
2019-08-11 06:00:00 17 3 Sudoeste 7 Noroeste 0 -- -- 88
2019-08-11 05:00:00 17.6 0 Calma 6 Sur 0 -- -- 81
2019-08-11 04:00:00 17.8 0 Calma 6 Oeste 0 -- -- 85
2019-08-11 03:00:00 17.5 5 Noroeste 8 Sudoeste 0 -- -- 84
2019-08-11 02:00:00 17.8 3 Sudoeste 6 Este 0 -- -- 82
2019-08-11 01:00:00 18.6 4 Sudoeste 13 Noroeste 0 -- -- 78
2019-08-11 00:00:00 19.9 2 Noroeste 12 Noroeste 0 -- -- 75
2019-08-10 23:00:00 21.4 4 Oeste 9 Noroeste 0 -- -- 69
2019-08-10 22:00:00 22.3 3 Sudeste 12 Noroeste 0 -- -- 60
2019-08-10 21:00:00 22.9 10 Noroeste 14 Noroeste 0 -- -- 59
2019-08-10 20:00:00 25.8 4 Sudoeste 7 Sudoeste 0 -- -- 44
2019-08-10 19:00:00 26.9 5 Norte 22 Noroeste 0 -- -- 34
2019-08-10 18:00:00 27.7 12 Noroeste 21 Noroeste 0 -- -- 34
2019-08-10 17:00:00 27.7 12 Noroeste 23 Noroeste 0 -- -- 34
2019-08-10 16:00:00 27.6 16 Norte 25 Noroeste 0 -- -- 36
2019-08-10 15:00:00 27.2 11 Norte 27 Noroeste 0 -- -- 39
2019-08-10 14:00:00 26.4 10 Norte 22 Noroeste 0 -- -- 42
2019-08-10 13:00:00 24.8 9 Norte 19 Norte 0 -- -- 49
2019-08-10 12:00:00 22.7 5 Este 10 Sudeste 0 -- -- 66
2019-08-10 11:00:00 19.7 4 Nordeste 13 Noroeste 0.2 -- -- 81
2019-08-10 10:00:00 17.4 4 Nordeste 7 Nordeste 0 -- -- 94
2019-08-10 09:00:00 16.7 2 Nordeste 4 Nordeste 0 -- -- 96
2019-08-10 08:00:00 15.7 2 Noroeste 5 Sudeste 0 -- -- 95
2019-08-10 07:00:00 16 2 Sudeste 4 Noroeste 0 -- -- 94
2019-08-10 06:00:00 16.8 0 Calma 5 Sudeste 0 -- -- 94
2019-08-10 05:00:00 16.5 0 Calma 9 Noroeste 0 -- -- 93
2019-08-10 04:00:00 17.2 7 Noroeste 10 Noroeste 0 -- -- 90
2019-08-10 03:00:00 18.2 3 Oeste 12 Noroeste 0 -- -- 87
2019-08-10 02:00:00 18.2 9 Noroeste 13 Noroeste 0 -- -- 86
2019-08-10 01:00:00 19 8 Sudoeste 13 Sudoeste 0 -- -- 82
2019-08-10 00:00:00 19.4 0 Calma 18 Noroeste 0 -- -- 81
2019-08-09 23:00:00 19.5 16 Oeste 41 Oeste 0.8 -- -- 77
2019-08-09 22:00:00 21.9 6 Norte 14 Norte 0 -- -- 86
2019-08-09 21:00:00 22.2 6 Noroeste 96 Oeste 3.2 -- -- 81
2019-08-09 20:00:00 30.1 12 Oeste 17 Oeste 0 -- -- 37
2019-08-09 19:00:00 32 6 Oeste 31 Oeste 0 -- -- 33
2019-08-09 18:00:00 33.5 23 Oeste 41 Oeste 0 -- -- 30
2019-08-09 17:00:00 33.2 12 Sur 39 Sudoeste 0 -- -- 30
2019-08-09 16:00:00 32.5 23 Sudoeste 42 Sudoeste 0 -- -- 30
2019-08-09 15:00:00 32.3 18 Sudoeste 33 Oeste 0 -- -- 30
2019-08-09 14:00:00 32.9 21 Oeste 38 Oeste 0 -- -- 31
2019-08-09 13:00:00 32.2 14 Sudeste 30 Sudeste 0 -- -- 31
2019-08-09 12:00:00 30.8 17 Sur 33 Sur 0 -- -- 33
2019-08-09 11:00:00 29.1 23 Sur 38 Sur 0 -- -- 38
2019-08-09 10:00:00 27.2 21 Sur 31 Sur 0 -- -- 46
2019-08-09 09:00:00 24.9 24 Sur 31 Sur 0 -- -- 52
2019-08-09 08:00:00 24.2 18 Sur 28 Sur 0 -- -- 54
2019-08-09 07:00:00 23 21 Sur 29 Sur 0 -- -- 57
2019-08-09 06:00:00 24 21 Sur 32 Sur 0 -- -- 54
2019-08-09 05:00:00 25 26 Sur 33 Sur 0 -- -- 51
2019-08-09 04:00:00 25.6 23 Sur 30 Sur 0 -- -- 49
2019-08-09 03:00:00 25.4 16 Sur 22 Sur 0 -- -- 48
2019-08-09 02:00:00 26.1 17 Sur 23 Sur 0 -- -- 46
2019-08-09 01:00:00 26.4 15 Sur 25 Sudeste 0 -- -- 45
2019-08-09 00:00:00 26.7 17 Sur 21 Sur 0 -- -- 43
2019-08-08 23:00:00 27.4 16 Sur 21 Sur 0 -- -- 41
2019-08-08 22:00:00 28.5 14 Sur 17 Sur 0 -- -- 39
2019-08-08 21:00:00 30.2 5 Sudoeste 13 Sur 0 -- -- 37
2019-08-08 20:00:00 32 7 Sudoeste 24 Sudoeste 0 -- -- 34
2019-08-08 19:00:00 31.9 9 Sur 28 Oeste 0 -- -- 33
2019-08-08 18:00:00 31.9 8 Noroeste 24 Oeste 0 -- -- 32
2019-08-08 17:00:00 31.8 5 Oeste 26 Oeste 0 -- -- 33
2019-08-08 16:00:00 31.9 16 Oeste 37 Noroeste 0 -- -- 34
2019-08-08 15:00:00 31.6 18 Oeste 30 Noroeste 0 -- -- 36
2019-08-08 14:00:00 30.8 19 Sudoeste 30 Oeste 0 -- -- 36
2019-08-08 13:00:00 29.5 13 Sudoeste 27 Oeste 0 -- -- 38
2019-08-08 12:00:00 28.5 12 Sudeste 22 Sudoeste 0 -- -- 41
2019-08-08 11:00:00 27.2 9 Sur 21 Sur 0 -- -- 42
2019-08-08 10:00:00 25.5 10 Sudeste 18 Sudeste 0 -- -- 50
2019-08-08 09:00:00 21.7 5 Nordeste 9 Este 0 -- -- 64
2019-08-08 08:00:00 19.9 4 Sur 9 Sudoeste 0 -- -- 66
2019-08-08 07:00:00 19.4 0 Calma 7 Noroeste 0 -- -- 71
2019-08-08 06:00:00 20.6 5 Sudoeste 9 Sudoeste 0 -- -- 66
2019-08-08 05:00:00 20.3 5 Oeste 10 Oeste 0 -- -- 68
2019-08-08 04:00:00 20.6 0 Calma 5 Oeste 0 -- -- 69
2019-08-08 03:00:00 20.7 5 Sudeste 8 Noroeste 0 -- -- 69
2019-08-08 02:00:00 21.9 2 Oeste 4 Sudoeste 0 -- -- 60
2019-08-08 01:00:00 22.3 0 Calma 4 Sudeste 0 -- -- 58
2019-08-08 00:00:00 22.6 0 Calma 5 Sudoeste 0 -- -- 57
2019-08-07 23:00:00 22.6 3 Nordeste 12 Nordeste 0 -- -- 65
2019-08-07 22:00:00 23.3 4 Norte 8 Oeste 0 -- -- 65
2019-08-07 21:00:00 23.3 6 Sur 22 Norte 0 -- -- 62
2019-08-07 20:00:00 24.2 17 Noroeste 34 Sudoeste 0.2 -- -- 59
2019-08-07 19:00:00 28.1 13 Noroeste 23 Oeste 0 -- -- 40
2019-08-07 18:00:00 28.6 16 Oeste 32 Oeste 0 -- -- 38
2019-08-07 17:00:00 29.4 18 Noroeste 37 Oeste 0 -- -- 35
2019-08-07 16:00:00 30.9 17 Noroeste 33 Noroeste 0 -- -- 32
2019-08-07 15:00:00 29.9 12 Noroeste 32 Oeste 0 -- -- 31
2019-08-07 14:00:00 29.6 16 Noroeste 30 Noroeste 0 -- -- 34
2019-08-07 13:00:00 28.4 10 Noroeste 25 Oeste 0 -- -- 43
2019-08-07 12:00:00 26.7 8 Norte 19 Norte 0 -- -- 56
2019-08-07 11:00:00 24.6 4 Norte 10 Norte 0 -- -- 59
2019-08-07 10:00:00 21.7 4 Norte 13 Noroeste 0 -- -- 70
2019-08-07 09:00:00 20.7 5 Norte 10 Norte 0 -- -- 75
2019-08-07 08:00:00 19.6 4 Sudeste 10 Sudeste 0 -- -- 79
2019-08-07 07:00:00 18.8 6 Sudeste 8 Sudeste 0 -- -- 82
2019-08-07 06:00:00 19.2 3 Sur 6 Oeste 0 -- -- 80
2019-08-07 05:00:00 19.5 5 Sudeste 6 Este 0 -- -- 80
2019-08-07 04:00:00 19.8 4 Este 7 Noroeste 0 -- -- 77
2019-08-07 03:00:00 20.7 0 Calma 5 Noroeste 0 -- -- 72
2019-08-07 02:00:00 21.3 4 Sudoeste 8 Sudoeste 0 -- -- 69
2019-08-07 01:00:00 21.8 0 Calma 8 Sudoeste 0 -- -- 67
2019-08-07 00:00:00 22.8 5 Este 9 Este 0 -- -- 64
2019-08-06 23:00:00 24.8 2 Sudeste 10 Sudeste 0 -- -- 55
2019-08-06 22:00:00 26.6 3 Sudeste 8 Oeste 0 -- -- 41
2019-08-06 21:00:00 27.8 4 Noroeste 7 Noroeste 0 -- -- 42
2019-08-06 20:00:00 30.5 2 Este 12 Noroeste 0 -- -- 33
2019-08-06 19:00:00 31.5 9 Noroeste 22 Noroeste 0 -- -- 30
2019-08-06 18:00:00 33.2 13 Noroeste 27 Oeste 0 -- -- 27
2019-08-06 17:00:00 32.6 9 Este 15 Este 0 -- -- 32
2019-08-06 16:00:00 31 8 Nordeste 23 Norte 0 -- -- 34
2019-08-06 15:00:00 31.2 12 Noroeste 23 Sudoeste 0 -- -- 36
2019-08-06 14:00:00 31.5 10 Sudeste 21 Sudeste 0 -- -- 35
2019-08-06 13:00:00 30.8 10 Sur 24 Sur 0 -- -- 34
2019-08-06 12:00:00 28.7 12 Sur 22 Sudoeste 0 -- -- 40
2019-08-06 11:00:00 25 4 Norte 12 Norte 0 -- -- 56
2019-08-06 10:00:00 22.6 3 Este 11 Sudeste 0 -- -- 67
2019-08-06 09:00:00 19.7 5 Este 9 Nordeste 0 -- -- 76
2019-08-06 08:00:00 17.5 0 Calma 9 Norte 0 -- -- 81
2019-08-06 07:00:00 16.6 5 Oeste 11 Noroeste 0 -- -- 83
2019-08-06 06:00:00 17.2 8 Oeste 13 Noroeste 0 -- -- 82
2019-08-06 05:00:00 18.5 3 Noroeste 5 Oeste 0 -- -- 78
2019-08-06 04:00:00 19.2 4 Noroeste 5 Noroeste 0 -- -- 77
2019-08-06 03:00:00 20.7 0 Calma 4 Noroeste 0 -- -- 71
2019-08-06 02:00:00 20.8 4 Oeste 7 Sudeste 0 -- -- 70
2019-08-06 01:00:00 22.6 5 Sudeste 9 Sudeste 0 -- -- 65
2019-08-06 00:00:00 23 4 Sudeste 9 Sudeste 0 -- -- 65
2019-08-05 23:00:00 24.7 5 Sudeste 10 Sur 0 -- -- 59
2019-08-05 22:00:00 26.8 6 Noroeste 21 Sudoeste 0 -- -- 49
2019-08-05 21:00:00 30.7 14 Sudoeste 21 Sur 0 -- -- 32
2019-08-05 20:00:00 32.6 13 Sur 22 Sudeste 0 -- -- 26
2019-08-05 19:00:00 33.6 11 Sudoeste 23 Sudeste 0 -- -- 26
2019-08-05 18:00:00 33 12 Sur 28 Sudeste 0 -- -- 28
2019-08-05 17:00:00 33.6 14 Sur 28 Sudeste 0 -- -- 28
2019-08-05 16:00:00 33 12 Sur 28 Sudeste 0 -- -- 29
2019-08-05 15:00:00 32.6 11 Sur 26 Sur 0 -- -- 31
2019-08-05 14:00:00 31.7 16 Sur 27 Sur 0 -- -- 33
2019-08-05 13:00:00 30.6 11 Sur 24 Sur 0 -- -- 36
2019-08-05 12:00:00 27.9 5 Este 11 Este 0 -- -- 50
2019-08-05 11:00:00 23.6 4 Nordeste 9 Norte 0 -- -- 64
2019-08-05 10:00:00 21.2 5 Norte 9 Norte 0 -- -- 73
2019-08-05 09:00:00 19.6 3 Este 7 Este 0 -- -- 80
2019-08-05 08:00:00 17.3 2 Sudoeste 4 Sudoeste 0 -- -- 87
2019-08-05 07:00:00 16.6 0 Calma 5 Sudeste 0 -- -- 88
2019-08-05 06:00:00 17.8 3 Sudeste 5 Sur 0 -- -- 84
2019-08-05 05:00:00 18.3 0 Calma 5 Sudoeste 0 -- -- 80
2019-08-05 04:00:00 19.1 2 Sudoeste 4 Norte 0 -- -- 78
2019-08-05 03:00:00 20 3 Sur 6 Sudoeste 0 -- -- 75
2019-08-05 02:00:00 20.8 0 Calma 6 Nordeste 0 -- -- 72
2019-08-05 01:00:00 22.2 2 Noroeste 8 Sudeste 0 -- -- 66
2019-08-05 00:00:00 22.9 3 Norte 9 Norte 0 -- -- 65
2019-08-04 23:00:00 24.7 5 Este 12 Sudeste 0 -- -- 58
2019-08-04 22:00:00 26.6 6 Este 18 Sudeste 0 -- -- 49
2019-08-04 21:00:00 29.6 9 Noroeste 14 Noroeste 0 -- -- 36
2019-08-04 20:00:00 33.5 11 Noroeste 21 Noroeste 0 -- -- 20
2019-08-04 19:00:00 34.4 9 Noroeste 30 Oeste 0 -- -- 19
2019-08-04 18:00:00 34.4 17 Noroeste 43 Oeste 0 -- -- 23
2019-08-04 17:00:00 33.2 7 Nordeste 24 Oeste 0 -- -- 29
2019-08-04 16:00:00 34.4 14 Sudoeste 28 Oeste 0 -- -- 26
2019-08-04 15:00:00 33.2 10 Sur 25 Oeste 0 -- -- 30
2019-08-04 14:00:00 32.1 13 Sudoeste 24 Sur 0 -- -- 34
2019-08-04 13:00:00 31 13 Sur 28 Sudoeste 0 -- -- 37
2019-08-04 12:00:00 28.8 7 Nordeste 17 Nordeste 0 -- -- 44
2019-08-04 11:00:00 25.5 4 Nordeste 12 Este 0 -- -- 50
2019-08-04 10:00:00 23 3 Nordeste 10 Nordeste 0 -- -- 55
2019-08-04 09:00:00 19.8 0 Calma 4 Norte 0 -- -- 66
2019-08-04 08:00:00 18.5 0 Calma 3 Nordeste 0 -- -- 72
2019-08-04 07:00:00 17.7 0 Calma 5 Sudeste 0 -- -- 73
2019-08-04 06:00:00 18.8 2 Noroeste 5 Nordeste 0 -- -- 69
2019-08-04 05:00:00 18.9 3 Oeste 8 Norte 0 -- -- 70
2019-08-04 04:00:00 19.7 3 Nordeste 6 Sudoeste 0 -- -- 66
2019-08-04 03:00:00 20.4 0 Calma 8 Sudoeste 0 -- -- 64
2019-08-04 02:00:00 21.2 4 Oeste 7 Sudoeste 0 -- -- 64
2019-08-04 01:00:00 22.4 6 Oeste 8 Oeste 0 -- -- 59
2019-08-04 00:00:00 24 0 Calma 10 Sudoeste 0 -- -- 55
2019-08-03 23:00:00 25.4 3 Oeste 13 Noroeste 0 -- -- 52
2019-08-03 22:00:00 27 13 Noroeste 20 Noroeste 0 -- -- 45
2019-08-03 21:00:00 28.8 7 Oeste 14 Noroeste 0 -- -- 31
2019-08-03 20:00:00 32.8 6 Noroeste 23 Noroeste 0 -- -- 25
2019-08-03 19:00:00 33.6 16 Noroeste 30 Oeste 0 -- -- 21
2019-08-03 18:00:00 33.8 8 Oeste 30 Oeste 0 -- -- 23
2019-08-03 17:00:00 33 8 Sur 31 Sur 0 -- -- 28
2019-08-03 16:00:00 32.5 16 Sudeste 27 Sur 0 -- -- 28
2019-08-03 15:00:00 33.2 8 Sur 23 Sur 0 -- -- 28
2019-08-03 14:00:00 31.6 9 Sur 22 Sur 0 -- -- 30
2019-08-03 13:00:00 30.7 10 Sur 21 Sur 0 -- -- 29
2019-08-03 12:00:00 28.4 7 Este 12 Nordeste 0 -- -- 35
2019-08-03 11:00:00 24.7 5 Este 10 Este 0 -- -- 43
2019-08-03 10:00:00 20.2 3 Norte 7 Nordeste 0 -- -- 52
2019-08-03 09:00:00 16.8 2 Norte 8 Nordeste 0 -- -- 64
2019-08-03 08:00:00 15 3 Este 6 Noroeste 0 -- -- 70
2019-08-03 07:00:00 14 0 Calma 5 Sudoeste 0 -- -- 72
2019-08-03 06:00:00 14.2 3 Este 5 Nordeste 0 -- -- 72
2019-08-03 05:00:00 15 3 Noroeste 5 Sudoeste 0 -- -- 69
2019-08-03 04:00:00 15.9 2 Sudoeste 4 Oeste 0 -- -- 66
2019-08-03 03:00:00 16.9 0 Calma 4 Noroeste 0 -- -- 62
2019-08-03 02:00:00 18.6 2 Sudoeste 6 Noroeste 0 -- -- 56
2019-08-03 01:00:00 18.6 6 Noroeste 8 Sudoeste 0 -- -- 56
2019-08-03 00:00:00 20.8 4 Sudoeste 8 Sudoeste 0 -- -- 49
2019-08-02 23:00:00 22.1 3 Sudeste 8 Sur 0 -- -- 44
2019-08-02 22:00:00 23.6 5 Oeste 13 Oeste 0 -- -- 35
2019-08-02 21:00:00 26.1 12 Noroeste 22 Noroeste 0 -- -- 31
2019-08-02 20:00:00 29.4 15 Noroeste 27 Noroeste 0 -- -- 24
2019-08-02 19:00:00 30.4 16 Norte 30 Noroeste 0 -- -- 25
2019-08-02 18:00:00 30.8 17 Noroeste 31 Noroeste 0 -- -- 26
2019-08-02 17:00:00 31 19 Noroeste 35 Noroeste 0 -- -- 21
2019-08-02 16:00:00 31.1 18 Noroeste 32 Norte 0 -- -- 26
2019-08-02 15:00:00 29.9 14 Norte 27 Norte 0 -- -- 33
2019-08-02 14:00:00 28.4 13 Norte 22 Nordeste 0 -- -- 40
2019-08-02 13:00:00 26.3 7 Noroeste 13 Norte 0 -- -- 50
2019-08-02 12:00:00 23.7 6 Noroeste 14 Noroeste 0 -- -- 55
2019-08-02 11:00:00 21.6 8 Norte 14 Nordeste 0 -- -- 63
2019-08-02 10:00:00 19.3 6 Noroeste 14 Noroeste 0 -- -- 72
2019-08-02 09:00:00 18.2 3 Norte 5 Este 0 -- -- 80
2019-08-02 08:00:00 16.7 2 Este 4 Oeste 0 -- -- 87
2019-08-02 07:00:00 15.3 3 Noroeste 6 Sudoeste 0 -- -- 88
2019-08-02 06:00:00 15.4 0 Calma 6 Sudoeste 0 -- -- 90
2019-08-02 05:00:00 16.4 5 Sudoeste 8 Sudoeste 0 -- -- 85
2019-08-02 04:00:00 17.3 4 Sur 7 Sudoeste 0 -- -- 83
2019-08-02 03:00:00 17.6 4 Sur 6 Sudoeste 0 -- -- 82
2019-08-02 02:00:00 18.2 6 Sudoeste 8 Sudoeste 0 -- -- 80
2019-08-02 01:00:00 18.7 4 Sur 6 Sudeste 0 -- -- 79
2019-08-02 00:00:00 19.3 4 Sur 6 Sudoeste 0 -- -- 78
2019-08-01 23:00:00 20.1 5 Norte 21 Norte 0 -- -- 76
2019-08-01 22:00:00 21.3 10 Norte 21 Norte 0 -- -- 72
2019-08-01 21:00:00 23.6 8 Noroeste 27 Norte 0 -- -- 62
2019-08-01 20:00:00 25.9 17 Norte 33 Norte 0 -- -- 53
2019-08-01 19:00:00 28.8 6 Sur 21 Sudeste 0 -- -- 36
2019-08-01 18:00:00 29.9 17 Sur 28 Sur 0 -- -- 33
2019-08-01 17:00:00 30 9 Sur 25 Sur 0 -- -- 33
2019-08-01 16:00:00 29.6 13 Sur 30 Sur 0 -- -- 34
2019-08-01 15:00:00 28.5 16 Sudoeste 31 Sudoeste 0 -- -- 39
2019-08-01 14:00:00 27.3 15 Sur 28 Sur 0 -- -- 43
2019-08-01 13:00:00 25.2 5 Este 14 Este 0 -- -- 53
2019-08-01 12:00:00 22.3 7 Este 12 Este 0 -- -- 61
2019-08-01 11:00:00 19.8 8 Norte 22 Norte 0 -- -- 71
2019-08-01 10:00:00 20 5 Este 12 Este 0 -- -- 71
2019-08-01 09:00:00 18.7 3 Este 15 Sudeste 0 -- -- 74
2019-08-01 08:00:00 16.2 12 Sudeste 17 Sudeste 0 -- -- 82
2019-08-01 07:00:00 16.1 4 Noroeste 17 Sudoeste 0 -- -- 79
2019-08-01 06:00:00 18.4 8 Sur 23 Sur 0 -- -- 78
2019-08-01 05:00:00 18 9 Sur 20 Sur 0 -- -- 73
2019-08-01 04:00:00 17.6 4 Sudoeste 12 Sudeste 0 -- -- 70
2019-08-01 03:00:00 18 4 Oeste 14 Oeste 0 -- -- 64
2019-08-01 02:00:00 18.6 4 Sur 7 Sudeste 0 -- -- 63
2019-08-01 01:00:00 18.9 4 Oeste 10 Este 0 -- -- 61
2019-08-01 00:00:00 20.6 8 Este 26 Sudoeste 0 -- -- 55
2019-07-31 23:00:00 23.1 13 Sudoeste 22 Sudoeste 0 -- -- 47
2019-07-31 22:00:00 22.1 9 Sudoeste 13 Sudoeste 0 -- -- 50
2019-07-31 21:00:00 24.5 5 Sudoeste 13 Noroeste 0 -- -- 45
2019-07-31 20:00:00 27.2 4 Noroeste 15 Sur 0 -- -- 35
2019-07-31 19:00:00 27.7 7 Sur 17 Sudeste 0 -- -- 34
2019-07-31 18:00:00 27.8 10 Sur 22 Sur 0 -- -- 34
2019-07-31 17:00:00 28.4 13 Sur 24 Sur 0 -- -- 33
2019-07-31 16:00:00 28.3 12 Sur 26 Sur 0 -- -- 33
2019-07-31 15:00:00 27.4 13 Sur 22 Sudeste 0 -- -- 35
2019-07-31 14:00:00 26.8 9 Sudoeste 21 Sudoeste 0 -- -- 34
2019-07-31 13:00:00 25.2 8 Este 15 Este 0 -- -- 39
2019-07-31 12:00:00 21.3 4 Nordeste 14 Nordeste 0 -- -- 48
2019-07-31 11:00:00 18 3 Sudeste 10 Este 0 -- -- 58
2019-07-31 10:00:00 15.3 5 Este 9 Este 0 -- -- 65
2019-07-31 09:00:00 12.1 0 Calma 5 Norte 0 -- -- 76
2019-07-31 08:00:00 9.7 2 Norte 6 Noroeste 0 -- -- 85
2019-07-31 07:00:00 9.3 0 Calma 4 Sudoeste 0 -- -- 84
2019-07-31 06:00:00 9.2 3 Noroeste 5 Oeste 0 -- -- 84
2019-07-31 05:00:00 9.7 2 Oeste 7 Oeste 0 -- -- 81
2019-07-31 04:00:00 10.6 5 Sudoeste 8 Sudoeste 0 -- -- 79
2019-07-31 03:00:00 10.5 2 Sur 6 Noroeste 0 -- -- 78
2019-07-31 02:00:00 12 4 Sudoeste 7 Sudoeste 0 -- -- 72
2019-07-31 01:00:00 12.6 4 Sudoeste 6 Oeste 0 -- -- 70
2019-07-31 00:00:00 13 0 Calma 15 Noroeste 0 -- -- 69
2019-07-30 23:00:00 13.9 2 Nordeste 15 Noroeste 0 -- -- 67
2019-07-30 22:00:00 14.6 6 Noroeste 28 Noroeste 0 -- -- 67
2019-07-30 21:00:00 17 15 Noroeste 28 Noroeste 0 -- -- 60
2019-07-30 20:00:00 19.7 20 Noroeste 37 Norte 0 -- -- 53
2019-07-30 19:00:00 21.8 23 Noroeste 35 Noroeste 0 -- -- 46
2019-07-30 18:00:00 22.6 21 Noroeste 37 Noroeste 0 -- -- 42
2019-07-30 17:00:00 22.5 22 Norte 40 Norte 0 -- -- 46
2019-07-30 16:00:00 24 18 Noroeste 37 Norte 0 -- -- 41
2019-07-30 15:00:00 23.6 17 Norte 32 Noroeste 0 -- -- 45
2019-07-30 14:00:00 22.9 16 Noroeste 29 Noroeste 0 -- -- 42
2019-07-30 13:00:00 22 15 Norte 27 Norte 0 -- -- 47
2019-07-30 12:00:00 20.7 14 Norte 31 Noroeste 0 -- -- 50
2019-07-30 11:00:00 19.3 13 Norte 23 Norte 0 -- -- 54
2019-07-30 10:00:00 17.6 11 Norte 22 Norte 0 -- -- 59
2019-07-30 09:00:00 15.9 12 Noroeste 20 Noroeste 0 -- -- 66
2019-07-30 08:00:00 14.6 4 Noroeste 9 Noroeste 0 -- -- 74
2019-07-30 07:00:00 13.9 3 Sur 6 Oeste 0 -- -- 77
2019-07-30 06:00:00 13.8 3 Oeste 9 Norte 0 -- -- 81
2019-07-30 05:00:00 15.1 3 Sur 6 Sudoeste 0 -- -- 76
2019-07-30 04:00:00 15 3 Sudoeste 10 Este 0 -- -- 78
2019-07-30 03:00:00 15.4 2 Sudeste 6 Nordeste 0 -- -- 75
2019-07-30 02:00:00 15.8 2 Este 9 Noroeste 0 -- -- 75
2019-07-30 01:00:00 16.7 6 Norte 15 Norte 0 -- -- 73
2019-07-30 00:00:00 18.1 9 Norte 18 Norte 0 -- -- 70
2019-07-29 23:00:00 19.3 8 Norte 23 Norte 0 -- -- 68
2019-07-29 22:00:00 21.1 15 Norte 29 Norte 0 -- -- 64
2019-07-29 21:00:00 24.6 13 Norte 28 Norte 0 -- -- 53
2019-07-29 20:00:00 29.5 14 Norte 29 Norte 0 -- -- 38
2019-07-29 19:00:00 30.6 10 Noroeste 25 Oeste 0 -- -- 26
2019-07-29 18:00:00 30.6 14 Noroeste 28 Noroeste 0 -- -- 27
2019-07-29 17:00:00 30.1 8 Noroeste 34 Noroeste 0 -- -- 28
2019-07-29 16:00:00 30 18 Noroeste 30 Noroeste 0 -- -- 29
2019-07-29 15:00:00 29.3 14 Nordeste 29 Noroeste 0 -- -- 31
2019-07-29 14:00:00 28.6 11 Nordeste 23 Nordeste 0 -- -- 33
2019-07-29 13:00:00 27.1 7 Norte 18 Este 0 -- -- 35
2019-07-29 12:00:00 26 10 Este 17 Este 0 -- -- 40
2019-07-29 11:00:00 22.7 8 Este 14 Este 0 -- -- 50
2019-07-29 10:00:00 18.3 5 Este 10 Sudeste 0 -- -- 65
2019-07-29 09:00:00 15.5 4 Este 8 Este 0 -- -- 75
2019-07-29 08:00:00 13.1 2 Este 4 Nordeste 0 -- -- 83
2019-07-29 07:00:00 10.7 0 Calma 4 Este 0 -- -- 87
2019-07-29 06:00:00 11 0 Calma 5 Noroeste 0 -- -- 85
2019-07-29 05:00:00 11.5 4 Noroeste 6 Noroeste 0 -- -- 83
2019-07-29 04:00:00 12.1 0 Calma 5 Norte 0 -- -- 80
2019-07-29 03:00:00 12.8 2 Noroeste 12 Sur 0 -- -- 80
2019-07-29 02:00:00 13.4 2 Este 7 Oeste 0 -- -- 78
2019-07-29 01:00:00 14.2 6 Oeste 8 Oeste 0 -- -- 74
2019-07-29 00:00:00 15.5 3 Oeste 9 Oeste 0 -- -- 70
2019-07-28 23:00:00 15.5 7 Oeste 10 Noroeste 0 -- -- 70
2019-07-28 22:00:00 17.3 9 Noroeste 15 Noroeste 0 -- -- 63
2019-07-28 21:00:00 20.6 12 Norte 22 Norte 0 -- -- 50
2019-07-28 20:00:00 22.9 18 Norte 31 Norte 0 -- -- 42
2019-07-28 19:00:00 23.9 17 Noroeste 28 Norte 0 -- -- 37
2019-07-28 18:00:00 24.4 16 Noroeste 30 Noroeste 0 -- -- 37
2019-07-28 17:00:00 23.9 17 Noroeste 35 Noroeste 0 -- -- 38
2019-07-28 16:00:00 23.6 22 Noroeste 34 Noroeste 0 -- -- 40
2019-07-28 15:00:00 22.9 17 Noroeste 33 Noroeste 0 -- -- 41
2019-07-28 14:00:00 22.4 19 Noroeste 33 Noroeste 0 -- -- 45
2019-07-28 13:00:00 21.4 18 Norte 33 Noroeste 0 -- -- 48
2019-07-28 12:00:00 19.7 21 Norte 41 Noroeste 0 -- -- 51
2019-07-28 11:00:00 18.6 24 Noroeste 42 Noroeste 0 -- -- 54
2019-07-28 10:00:00 17.1 25 Noroeste 40 Noroeste 0 -- -- 56
2019-07-28 09:00:00 15.7 24 Noroeste 34 Noroeste 0 -- -- 63
2019-07-28 08:00:00 14.1 22 Noroeste 34 Noroeste 0 -- -- 68
2019-07-28 07:00:00 13.5 26 Noroeste 42 Noroeste 0 -- -- 75
2019-07-28 06:00:00 13.7 30 Noroeste 43 Noroeste 0 -- -- 75
2019-07-28 05:00:00 13.9 33 Noroeste 48 Noroeste 0 -- -- 70
2019-07-28 04:00:00 13.9 33 Noroeste 46 Noroeste 0 -- -- 69
2019-07-28 03:00:00 13.4 26 Noroeste 36 Noroeste 0 -- -- 69
2019-07-28 02:00:00 13.6 26 Noroeste 41 Noroeste 0 -- -- 72
2019-07-28 01:00:00 13.7 29 Noroeste 41 Noroeste 0 -- -- 75
2019-07-28 00:00:00 13.9 28 Noroeste 58 Noroeste 0 -- -- 72
2019-07-27 23:00:00 14.1 28 Noroeste 46 Noroeste 0 -- -- 69
2019-07-26 12:00:00 -- -- -- -- -- -- -- -- --
2019-07-26 11:00:00 20.8 9 Este 18 Este 0 -- -- 82
2019-07-26 10:00:00 21 5 Noroeste 12 Este 0 -- -- 78
2019-07-26 09:00:00 20.1 9 Noroeste 20 Oeste 0 -- -- 82
2019-07-26 08:00:00 19.4 6 Sudoeste 14 Nordeste 0 -- -- 87
2019-07-26 07:00:00 20 9 Este 12 Este 0 -- -- 80
2019-07-26 06:00:00 20.4 7 Este 15 Norte 0 -- -- 75
2019-07-26 05:00:00 21.9 10 Noroeste 14 Noroeste 0 -- -- 64
2019-07-26 04:00:00 24.3 7 Sur 22 Sudoeste 0 -- -- 46
2019-07-26 03:00:00 24.9 15 Sudoeste 22 Sudoeste 0 -- -- 45
2019-07-26 02:00:00 24.4 7 Noroeste 27 Sudeste 0 -- -- 46
2019-07-26 01:00:00 26.2 10 Sur 19 Sur 0 -- -- 38
2019-07-26 00:00:00 26.8 5 Sur 21 Sur 0 -- -- 38
2019-07-25 23:00:00 28.5 14 Sur 26 Sur 0 -- -- 37
2019-07-25 22:00:00 29.1 10 Sur 30 Sur 0 -- -- 36
2019-07-25 21:00:00 30.6 23 Sudoeste 42 Sur 0 -- -- 34
2019-07-25 20:00:00 32.8 25 Sur 42 Sur 0 -- -- 27
2019-07-25 19:00:00 34.2 23 Sudoeste 41 Sur 0 -- -- 23
2019-07-25 18:00:00 35 20 Sur 37 Sur 0 -- -- 22
2019-07-25 17:00:00 35.2 25 Sur 41 Sur 0 -- -- 20
2019-07-25 16:00:00 34.8 26 Sur 42 Sur 0 -- -- 21
2019-07-25 15:00:00 34.2 29 Sur 45 Sur 0 -- -- 24
2019-07-25 14:00:00 34.1 23 Sur 37 Sudeste 0 -- -- 25
2019-07-25 13:00:00 33.5 18 Sur 27 Sur 0 -- -- 28
2019-07-25 12:00:00 31.8 17 Sur 26 Sur 0 -- -- 29
2019-07-25 11:00:00 30.2 15 Sudoeste 23 Sudoeste 0 -- -- 32
2019-07-25 10:00:00 27.9 14 Sudoeste 24 Sur 0 -- -- 36
2019-07-25 09:00:00 26.2 11 Sur 20 Sur 0 -- -- 40
2019-07-25 08:00:00 24.6 9 Sur 24 Sudoeste 0 -- -- 43
2019-07-25 07:00:00 24.7 15 Sur 27 Sudoeste 0 -- -- 41
2019-07-25 06:00:00 24.8 12 Sur 19 Sur 0 -- -- 40
2019-07-25 05:00:00 26 17 Sur 23 Sur 0 -- -- 37
2019-07-25 04:00:00 26.4 4 Noroeste 33 Sur 0 -- -- 36
2019-07-25 03:00:00 26.9 21 Sur 32 Sur 0 -- -- 33
2019-07-25 02:00:00 27.8 19 Sur 31 Sur 0 -- -- 30
2019-07-25 01:00:00 27.9 12 Sudeste 26 Sur 0 -- -- 31
2019-07-25 00:00:00 29 12 Sudeste 29 Sur 0 -- -- 29
2019-07-24 23:00:00 29.7 19 Sur 26 Sur 0 -- -- 27
2019-07-24 22:00:00 31 15 Sur 22 Sur 0 -- -- 26
2019-07-24 21:00:00 32.7 14 Sur 23 Sur 0 -- -- 24
2019-07-24 20:00:00 34.5 18 Sur 28 Sur 0 -- -- 21
2019-07-24 19:00:00 35.7 15 Sur 31 Sudeste 0 -- -- 19
2019-07-24 18:00:00 36.2 14 Sudeste 28 Sur 0 -- -- 18
2019-07-24 17:00:00 35.7 15 Sudeste 31 Sudeste 0 -- -- 21
2019-07-24 16:00:00 34.6 13 Sur 29 Sur 0 -- -- 21
2019-07-24 15:00:00 35.4 15 Sur 27 Sudeste 0 -- -- 20
2019-07-24 14:00:00 34.8 14 Sur 27 Sudeste 0 -- -- 23
2019-07-24 13:00:00 34.2 10 Sur 25 Sudoeste 0 -- -- 22
2019-07-24 12:00:00 32.4 16 Sur 24 Sur 0 -- -- 25
2019-07-24 11:00:00 31.3 9 Sudeste 19 Sudeste 0 -- -- 27
2019-07-24 10:00:00 27.2 12 Sur 22 Sur 0 -- -- 34
2019-07-24 09:00:00 26.7 16 Sur 24 Sur 0 -- -- 33
2019-07-24 08:00:00 21 2 Oeste 15 Sudeste 0 -- -- 47
2019-07-24 07:00:00 20.7 10 Este 15 Sur 0 -- -- 46
2019-07-24 06:00:00 21.3 8 Este 12 Sur 0 -- -- 47
2019-07-24 05:00:00 22.7 6 Sur 11 Sur 0 -- -- 42
2019-07-24 04:00:00 22.5 6 Sudoeste 10 Sudoeste 0 -- -- 46
2019-07-24 03:00:00 24.1 6 Sudoeste 23 Sudoeste 0 -- -- 41
2019-07-24 02:00:00 27.3 17 Sudoeste 26 Sudoeste 0 -- -- 33
2019-07-24 01:00:00 25.3 4 Sudeste 17 Oeste 0 -- -- 41
2019-07-24 00:00:00 26.2 10 Oeste 24 Oeste 0 -- -- 39
2019-07-23 23:00:00 29.8 13 Noroeste 23 Sur 0 -- -- 29
2019-07-23 22:00:00 31.3 18 Sur 27 Sur 0 -- -- 26
2019-07-23 21:00:00 32.9 15 Sur 26 Sur 0 -- -- 22
2019-07-23 20:00:00 35.1 15 Sur 25 Sur 0 -- -- 20
2019-07-23 19:00:00 35.9 17 Sur 27 Sur 0 -- -- 20
2019-07-23 18:00:00 36.3 14 Sur 36 Sur 0 -- -- 18
2019-07-23 17:00:00 36.6 18 Sur 32 Sur 0 -- -- 18
2019-07-23 16:00:00 36.4 15 Sur 32 Sur 0 -- -- 18
2019-07-23 15:00:00 36.1 14 Sur 31 Sur 0 -- -- 19
2019-07-23 14:00:00 35.3 15 Sur 30 Sudoeste 0 -- -- 20
2019-07-23 13:00:00 34.2 17 Sur 30 Sur 0 -- -- 19
2019-07-23 12:00:00 32.8 15 Sur 27 Sur 0 -- -- 22
2019-07-23 11:00:00 30.9 17 Sur 27 Sur 0 -- -- 25
2019-07-23 10:00:00 29.1 11 Sur 17 Sur 0 -- -- 28
2019-07-23 09:00:00 26.7 6 Sudeste 15 Sur 0 -- -- 35
2019-07-23 08:00:00 25 12 Sur 23 Sudeste 0 -- -- 33
2019-07-23 07:00:00 23.4 10 Sudeste 25 Sudeste 0 -- -- 36
2019-07-23 06:00:00 24 6 Sudeste 33 Sur 0 -- -- 34
2019-07-23 05:00:00 25.2 23 Sur 34 Sur 0 -- -- 32
2019-07-23 04:00:00 25.9 20 Sur 32 Sur 0 -- -- 30
2019-07-23 03:00:00 25.9 21 Sur 34 Sur 0 -- -- 30
2019-07-23 02:00:00 27 22 Sur 32 Sur 0 -- -- 28
2019-07-23 01:00:00 27 18 Sur 28 Sudeste 0 -- -- 30
2019-07-23 00:00:00 26.7 10 Sudeste 18 Sudeste 0 -- -- 33
2019-07-22 23:00:00 28.3 10 Sur 23 Sur 0 -- -- 30
2019-07-22 22:00:00 30.3 16 Sur 23 Sur 0 -- -- 26
2019-07-22 21:00:00 32.6 13 Sur 22 Sur 0 -- -- 23
2019-07-22 20:00:00 34.2 13 Sur 28 Sur 0 -- -- 21
2019-07-22 19:00:00 35.2 17 Sur 29 Sur 0 -- -- 19
2019-07-22 18:00:00 36.1 10 Sur 31 Sudoeste 0 -- -- 19
2019-07-22 17:00:00 35.7 15 Sudoeste 35 Sudoeste 0 -- -- 19
2019-07-22 16:00:00 35.4 18 Sudoeste 33 Sur 0 -- -- 21
2019-07-22 15:00:00 34.8 17 Sudoeste 32 Sudoeste 0 -- -- 24
2019-07-22 14:00:00 34.4 11 Sudoeste 26 Sudoeste 0 -- -- 25
2019-07-22 13:00:00 33.1 19 Sudoeste 27 Sur 0 -- -- 26
2019-07-22 12:00:00 32.1 10 Sudeste 22 Sur 0 -- -- 27
2019-07-22 11:00:00 28.5 4 Nordeste 9 Este 0 -- -- 41
2019-07-22 10:00:00 26.1 4 Este 13 Este 0 -- -- 47
2019-07-22 09:00:00 23.2 4 Sudeste 13 Norte 0 -- -- 55
2019-07-22 08:00:00 22.7 9 Sur 13 Sudeste 0 -- -- 48
2019-07-22 07:00:00 22.5 9 Sudoeste 14 Sur 0 -- -- 50
2019-07-22 06:00:00 22.7 5 Sudeste 31 Sur 0 -- -- 52
2019-07-22 05:00:00 23.5 15 Sur 22 Sur 0 -- -- 51
2019-07-22 04:00:00 23.5 13 Sudoeste 17 Sudoeste 0 -- -- 51
2019-07-22 03:00:00 22.5 7 Sur 10 Sur 0 -- -- 62
2019-07-22 02:00:00 22.9 5 Sur 8 Sudoeste 0 -- -- 65
2019-07-22 01:00:00 22.7 4 Sudoeste 10 Oeste 0 -- -- 66
2019-07-22 00:00:00 24.1 4 Este 16 Noroeste 0 -- -- 53
2019-07-21 23:00:00 27.1 9 Sur 12 Sur 0 -- -- 43
2019-07-21 22:00:00 28.2 10 Sur 23 Sur 0 -- -- 40
2019-07-21 21:00:00 30.2 14 Sudoeste 22 Sur 0 -- -- 36
2019-07-21 20:00:00 31.7 17 Sudoeste 30 Sur 0 -- -- 32
2019-07-21 19:00:00 32.7 19 Sudoeste 28 Sudoeste 0 -- -- 30
2019-07-21 18:00:00 33.2 17 Sur 28 Sur 0 -- -- 30
2019-07-21 17:00:00 32.8 13 Sudoeste 26 Este 0 -- -- 31
2019-07-21 16:00:00 31.2 10 Nordeste 18 Nordeste 0 -- -- 44
2019-07-21 15:00:00 27.4 5 Norte 26 Este 0 -- -- 54
2019-07-21 14:00:00 26.4 7 Norte 17 Noroeste 0.6 -- -- 66
2019-07-21 13:00:00 26.6 9 Sudoeste 26 Sudeste 0 -- -- 49
2019-07-21 12:00:00 28.7 7 Este 16 Sudoeste 0 -- -- 42
2019-07-21 11:00:00 26.1 7 Nordeste 15 Sudoeste 0 -- -- 52
2019-07-21 10:00:00 21.8 5 Norte 8 Norte 0 -- -- 72
2019-07-21 09:00:00 19.9 3 Nordeste 6 Nordeste 0 -- -- 80
2019-07-21 08:00:00 18.3 3 Noroeste 5 Norte 0 -- -- 86
2019-07-21 07:00:00 17.6 2 Noroeste 5 Sudoeste 0 -- -- 87
2019-07-21 06:00:00 18.5 3 Sur 6 Sur 0 -- -- 84
2019-07-21 05:00:00 18.8 5 Sur 7 Sudoeste 0 -- -- 83
2019-07-21 04:00:00 19.1 4 Sudeste 8 Sudeste 0 -- -- 82
2019-07-21 03:00:00 19.9 4 Sudeste 8 Sudeste 0 -- -- 78
2019-07-21 02:00:00 20.9 4 Sudeste 7 Sudeste 0 -- -- 74
2019-07-21 01:00:00 21.8 5 Sudeste 7 Sudoeste 0 -- -- 72
2019-07-21 00:00:00 22.5 4 Sudeste 7 Sudoeste 0 -- -- 69